Time;durP1;ratioP1;P1;durP2;ratioP2;P2;SDS_P1;SDS_P2;PMS_P1;PMS_P2;Temp;Humidity;BMP_temperature;BMP_pressure;BME280_temperature;BME280_humidity;BME280_pressure;Samples;Min_cycle;Max_cycle;Signal;HPM_P1;HPM_P2
2023/04/25 07:22:18;;;;;;;7.07;3.20;;;;;;;-145.79;60.74;78297.31;5306109;27;20385;-73
2023/04/25 07:24:49;;;;;;;6.68;3.35;;;;;;;-145.79;59.77;78295.19;5304371;28;20031;-74
2023/04/25 07:27:21;;;;;;;6.70;3.90;;;;;;;-145.79;62.40;78265.50;5322195;28;20020;-71
2023/04/25 07:29:53;;;;;;;9.30;3.13;;;;;;;-145.79;61.04;78263.38;5322072;28;20030;-72
2023/04/25 07:32:25;;;;;;;8.43;2.95;;;;;;;-145.79;59.42;78250.66;5302893;28;20368;-71
2023/04/25 07:34:56;;;;;;;6.82;2.83;;;;;;;-145.79;60.15;78233.69;5300580;28;20042;-69
2023/04/25 07:37:28;;;;;;;7.07;3.05;;;;;;;-145.79;59.99;78244.28;5300527;28;20036;-69
2023/04/25 07:39:59;;;;;;;10.07;2.70;;;;;;;-145.79;59.88;78246.41;5299954;28;20025;-71
2023/04/25 07:42:30;;;;;;;7.82;4.68;;;;;;;-145.79;59.95;78254.91;5300719;28;20028;-72
2023/04/25 07:45:03;;;;;;;9.38;3.78;;;;;;;-145.79;59.20;78267.63;5300820;28;20115;-71
2023/04/25 07:47:34;;;;;;;12.73;6.53;;;;;;;-145.79;58.76;78269.75;5299456;28;20077;-72
2023/04/25 07:50:06;;;;;;;18.95;13.15;;;;;;;-145.79;58.89;78261.25;5300442;28;20472;-71
2023/04/25 07:52:37;;;;;;;7.72;2.58;;;;;;;-145.79;58.79;78263.38;5299783;28;20119;-71
2023/04/25 07:55:09;;;;;;;8.52;3.00;;;;;;;-145.79;58.54;78250.66;5298435;28;20017;-71
2023/04/25 07:57:43;;;;;;;7.13;2.85;;;;;;;-145.79;57.41;78254.91;5287312;28;20033;-71
2023/04/25 08:00:14;;;;;;;3.72;2.28;;;;;;;-145.79;57.75;78254.91;5278132;28;20024;-71
2023/04/25 08:02:46;;;;;;;7.20;2.35;;;;;;;-145.79;58.22;78259.13;5287143;28;20039;-71
2023/04/25 08:05:17;;;;;;;10.45;3.60;;;;;;;-145.79;58.13;78254.91;5299963;28;20074;-71
2023/04/25 08:07:52;;;;;;;7.32;3.03;;;;;;;-145.79;57.18;78278.22;5299128;28;20432;-70
2023/04/25 08:10:23;;;;;;;5.00;2.45;;;;;;;-145.79;58.02;78263.38;5299838;28;20032;-70
2023/04/25 08:12:54;;;;;;;6.07;2.60;;;;;;;-145.79;57.61;78250.66;5299334;28;20031;-70
2023/04/25 08:15:26;;;;;;;10.88;2.83;;;;;;;-145.79;57.38;78246.41;5299145;28;20380;-68
2023/04/25 08:17:57;;;;;;;8.38;3.28;;;;;;;-145.79;57.28;78246.41;5299454;28;20111;-71
2023/04/25 08:20:29;;;;;;;8.48;2.33;;;;;;;-145.79;56.48;78246.41;5299122;28;20042;-70
2023/04/25 08:23:03;;;;;;;7.88;2.75;;;;;;;-145.79;56.97;78250.66;5298916;28;20402;-68
2023/04/25 08:25:34;;;;;;;9.60;4.43;;;;;;;-145.79;59.03;78257.03;5299624;28;20039;-69
2023/04/25 08:28:06;;;;;;;7.72;2.80;;;;;;;-145.79;58.54;78271.84;5298550;28;20044;-68
2023/04/25 08:30:37;;;;;;;7.82;2.60;;;;;;;-145.79;58.17;78263.38;5293944;28;20056;-69
2023/04/25 08:33:08;;;;;;;8.18;3.35;;;;;;;-145.79;58.61;78265.50;5280898;28;20024;-69
2023/04/25 08:35:40;;;;;;;12.02;3.58;;;;;;;-145.79;57.88;78254.91;5297261;28;20024;-69
2023/04/25 08:38:11;;;;;;;14.38;3.42;;;;;;;-145.79;57.28;78246.41;5288515;28;20020;-69
2023/04/25 08:40:43;;;;;;;11.93;3.38;;;;;;;-145.79;56.50;78254.91;5300660;28;20378;-69
2023/04/25 08:43:18;;;;;;;6.78;3.63;;;;;;;-145.79;57.09;78233.69;5293638;28;20335;-70
2023/04/25 08:45:53;;;;;;;6.93;2.75;;;;;;;-145.79;57.22;78233.69;5298305;28;20040;-72
2023/04/25 08:48:27;;;;;;;30.80;22.80;;;;;;;-145.79;56.86;78223.09;5285673;28;20058;-72
2023/04/25 08:51:01;;;;;;;7.20;3.08;;;;;;;-145.79;56.79;78225.22;5282175;28;20009;-72
2023/04/25 08:53:33;;;;;;;9.45;3.55;;;;;;;-145.79;57.85;78227.34;5272174;28;20046;-72
2023/04/25 08:56:06;;;;;;;13.00;2.83;;;;;;;-145.79;57.31;78254.91;5284278;28;20071;-71
2023/04/25 08:58:38;;;;;;;10.15;3.00;;;;;;;-145.79;58.30;78254.91;5272233;28;20029;-71
2023/04/25 09:01:09;;;;;;;8.85;2.55;;;;;;;-145.79;58.83;78252.78;5262452;28;20044;-71
2023/04/25 09:03:41;;;;;;;10.50;3.22;;;;;;;-145.79;57.58;78257.03;5287067;28;20395;-71
2023/04/25 09:06:13;;;;;;;7.25;2.50;;;;;;;-145.79;56.83;78265.50;5283913;28;20029;-71
2023/04/25 09:08:44;;;;;;;12.88;2.97;;;;;;;-145.79;55.59;78246.41;5286153;28;20052;-71
2023/04/25 09:11:16;;;;;;;9.45;2.72;;;;;;;-145.79;56.07;78252.78;5298339;28;20024;-71
2023/04/25 09:13:47;;;;;;;6.72;3.28;;;;;;;-145.79;55.87;78252.78;5294899;28;20012;-71
2023/04/25 09:16:21;;;;;;;9.68;3.40;;;;;;;-145.79;55.80;78225.22;5290257;28;20418;-71
2023/04/25 09:18:53;;;;;;;8.23;2.83;;;;;;;-145.79;55.04;78227.34;5297690;28;20013;-71
2023/04/25 09:21:24;;;;;;;7.90;3.05;;;;;;;-145.79;53.31;78235.81;5287699;28;20078;-71
2023/04/25 09:23:56;;;;;;;7.40;2.90;;;;;;;-145.79;52.57;78231.56;5293147;28;20252;-71
2023/04/25 09:26:28;;;;;;;7.45;2.72;;;;;;;-145.79;53.00;78233.69;5299593;28;20028;-70
2023/04/25 09:29:07;;;;;;;6.70;3.40;;;;;;;-145.79;52.49;78254.91;5286164;28;20024;-72
2023/04/25 09:31:38;;;;;;;13.35;5.70;;;;;;;-145.79;57.23;78204.00;5283927;28;20063;-70
2023/04/25 09:34:15;;;;;;;11.20;3.53;;;;;;;-145.79;52.90;78220.97;5279889;28;20464;-75
2023/04/25 09:36:46;;;;;;;10.82;2.40;;;;;;;-145.79;51.96;78212.50;5273971;28;20104;-74
2023/04/25 09:39:19;;;;;;;13.52;4.55;;;;;;;-145.79;51.63;78199.78;5273994;28;20111;-75
2023/04/25 09:41:53;;;;;;;6.80;2.58;;;;;;;-145.79;51.48;78187.06;5280433;28;20107;-73
2023/04/25 09:44:25;;;;;;;7.72;2.00;;;;;;;-145.79;50.33;78195.53;5276850;28;20024;-72
2023/04/25 09:46:56;;;;;;;5.47;2.35;;;;;;;-145.79;49.80;78212.50;5262702;28;20364;-72
2023/04/25 09:49:28;;;;;;;8.18;2.92;;;;;;;-145.79;50.15;78204.00;5272754;28;20104;-73
2023/04/25 09:52:00;;;;;;;9.55;2.70;;;;;;;-145.79;51.19;78195.53;5283653;28;20181;-73
2023/04/25 09:54:31;;;;;;;9.82;2.55;;;;;;;-145.79;52.34;78187.06;5282823;28;20032;-73
2023/04/25 09:57:12;;;;;;;4.38;2.10;;;;;;;-145.79;50.71;78178.56;5283481;28;20020;-73
2023/04/25 09:59:48;;;;;;;4.03;2.00;;;;;;;-145.79;50.78;78182.81;5283041;28;20032;-73
2023/04/25 10:02:24;;;;;;;6.70;3.25;;;;;;;-145.79;52.05;78208.25;5284090;28;20056;-73
2023/04/25 10:04:56;;;;;;;11.52;4.25;;;;;;;-145.79;52.03;78212.50;5283715;28;20388;-72
2023/04/25 10:07:31;;;;;;;4.55;2.47;;;;;;;-145.79;50.16;78225.22;5282704;28;20029;-72
2023/04/25 10:10:04;;;;;;;9.77;3.80;;;;;;;-145.79;49.98;78218.84;5268170;28;20032;-73
2023/04/25 10:12:36;;;;;;;5.97;2.75;;;;;;;-145.79;51.35;78195.53;5280679;28;20103;-72
2023/04/25 10:15:08;;;;;;;5.88;3.13;;;;;;;-145.79;48.81;78174.34;5263548;28;20111;-72
2023/04/25 10:17:40;;;;;;;4.05;1.48;;;;;;;-145.79;47.46;78174.34;5268968;28;20498;-73
2023/04/25 10:20:12;;;;;;;3.30;2.85;;;;;;;-145.79;45.16;78165.84;5262127;28;20033;-72
2023/04/25 10:22:45;;;;;;;5.22;1.48;;;;;;;-145.79;45.69;78144.66;5262042;28;20052;-72
2023/04/25 10:25:17;;;;;;;7.47;1.88;;;;;;;-145.79;45.48;78144.66;5262440;28;20059;-72
2023/04/25 10:27:53;;;;;;;7.32;4.68;;;;;;;-145.79;46.89;78112.84;5265579;28;20028;-72
2023/04/25 10:30:24;;;;;;;;;;;;;;;-145.79;45.91;78095.91;5283198;28;20028;-72
2023/04/25 10:32:56;;;;;;;6.60;1.70;;;;;;;-145.79;45.49;78093.78;5283109;28;19920;-72
2023/04/25 10:35:32;;;;;;;3.72;1.73;;;;;;;-145.79;42.68;78106.50;5282186;28;20092;-72
2023/04/25 10:38:05;;;;;;;5.35;1.52;;;;;;;-145.79;43.47;78106.50;5282734;28;20032;-72
2023/04/25 10:40:38;;;;;;;4.63;1.85;;;;;;;-145.79;44.05;78121.34;5282675;28;20036;-72
2023/04/25 10:43:31;;;;;;;6.28;2.17;;;;;;;-145.79;44.95;78112.84;5281768;28;20047;-71
2023/04/25 10:46:15;;;;;;;5.40;1.52;;;;;;;-145.79;44.76;78123.44;5281750;28;20116;-71
2023/04/25 10:48:49;;;;;;;4.38;2.28;;;;;;;-145.79;45.00;78127.69;5282060;28;20471;-72
2023/04/25 10:51:22;;;;;;;7.40;2.67;;;;;;;-145.79;45.95;78131.94;5282797;28;20078;-72
2023/04/25 10:54:08;;;;;;;8.43;2.22;;;;;;;-145.79;46.62;78110.72;5282388;28;20099;-72
2023/04/25 10:56:44;;;;;;;4.63;1.83;;;;;;;-145.79;46.54;78085.28;5281485;28;20027;-72
2023/04/25 10:59:16;;;;;;;;;;;;;;;-145.79;46.47;78072.56;5282815;28;20029;-71
2023/04/25 11:01:54;;;;;;;6.97;2.85;;;;;;;-145.79;46.69;78066.22;5280597;28;19923;-73
2023/04/25 11:04:30;;;;;;;6.60;2.03;;;;;;;-145.79;46.88;78076.81;5276013;28;20117;-72
2023/04/25 11:07:09;;;;;;;5.90;2.08;;;;;;;-145.79;46.29;78091.66;5269831;28;20035;-71
2023/04/25 11:09:41;;;;;;;6.72;1.70;;;;;;;-145.79;46.47;78117.09;5277247;28;20113;-72
2023/04/25 11:12:13;;;;;;;5.95;2.13;;;;;;;-145.79;50.17;78112.84;5281852;28;20025;-74
2023/04/25 11:14:44;;;;;;;6.47;2.85;;;;;;;-145.79;47.61;78123.44;5281342;28;20036;-71
2023/04/25 11:17:15;;;;;;;5.53;2.20;;;;;;;-145.79;48.70;78136.19;5281177;28;20028;-72
2023/04/25 11:19:48;;;;;;;6.13;1.90;;;;;;;-145.79;51.07;78136.19;5281040;28;20103;-71
2023/04/25 11:22:21;;;;;;;6.63;2.03;;;;;;;-145.79;53.36;78165.84;5279134;28;20048;-72
2023/04/25 11:24:52;;;;;;;4.82;1.80;;;;;;;-145.79;53.40;78195.53;5264569;28;20496;-71
2023/04/25 11:27:24;;;;;;;4.88;2.00;;;;;;;-145.79;52.67;78237.94;5275278;28;20036;-71
2023/04/25 11:29:55;;;;;;;5.80;1.80;;;;;;;-145.79;53.86;78237.94;5280061;28;20418;-70
2023/04/25 11:32:27;;;;;;;21.75;16.50;;;;;;;-145.79;53.83;78242.19;5260356;28;20123;-70
2023/04/25 11:34:58;;;;;;;19.10;14.48;;;;;;;-145.79;54.09;78242.19;5260712;28;20021;-71
2023/04/25 11:37:29;;;;;;;25.15;16.77;;;;;;;-145.79;54.99;78235.81;5278640;28;20513;-72
2023/04/25 11:40:02;;;;;;;6.55;2.85;;;;;;;-145.79;52.52;78233.69;5281000;28;20469;-75
2023/04/25 11:42:33;;;;;;;4.25;2.17;;;;;;;-145.79;51.59;78227.34;5282262;28;20444;-74
2023/04/25 11:45:05;;;;;;;4.50;1.70;;;;;;;-145.79;51.33;78197.66;5281048;28;20027;-74
2023/04/25 11:47:37;;;;;;;5.97;2.30;;;;;;;-145.79;49.82;78161.63;5282048;28;20032;-72
2023/04/25 11:50:09;;;;;;;3.60;1.40;;;;;;;-145.79;49.97;78110.72;5281372;28;20032;-71
2023/04/25 11:52:47;;;;;;;5.07;1.48;;;;;;;-145.79;48.06;78102.25;5280703;28;20043;-70
2023/04/25 11:55:20;;;;;;;7.15;2.20;;;;;;;-145.79;48.27;78110.72;5281552;28;20021;-69
2023/04/25 11:57:51;;;;;;;3.72;1.70;;;;;;;-145.79;47.80;78138.28;5281204;28;20028;-70
2023/04/25 12:00:23;;;;;;;5.85;2.38;;;;;;;-145.79;46.16;78161.63;5281025;28;20079;-72
2023/04/25 12:03:00;;;;;;;6.55;1.83;;;;;;;-145.79;46.54;78131.94;5281682;28;20037;-72
2023/04/25 12:05:33;;;;;;;8.43;2.58;;;;;;;-145.79;45.38;78098.00;5281824;28;20020;-71
2023/04/25 12:08:15;;;;;;;9.00;3.00;;;;;;;-145.79;45.53;78064.09;5282808;28;20032;-70
2023/04/25 12:10:46;;;;;;;7.22;2.05;;;;;;;-145.79;44.98;78061.97;5283207;28;20069;-71
2023/04/25 12:13:26;;;;;;;2.88;1.40;;;;;;;-145.79;43.23;78089.53;5262026;28;20531;-68
2023/04/25 12:16:00;;;;;;;3.50;1.42;;;;;;;-145.79;42.67;78098.00;5262327;28;20366;-70
2023/04/25 12:18:31;;;;;;;69.53;55.63;;;;;;;-145.79;42.81;78104.38;5262475;28;20392;-70
2023/04/25 12:21:04;;;;;;;9.95;5.38;;;;;;;-145.79;42.76;78110.72;5265887;28;20049;-74
2023/04/25 12:23:39;;;;;;;2.75;1.38;;;;;;;-145.79;42.45;78106.50;5283456;28;20050;-68
2023/04/25 12:26:11;;;;;;;4.50;1.40;;;;;;;-145.79;42.32;78064.09;5285369;28;20024;-69
2023/04/25 12:28:45;;;;;;;5.50;1.55;;;;;;;-145.79;41.17;78030.19;5282907;28;20479;-69
2023/04/25 12:31:16;;;;;;;5.10;1.95;;;;;;;-145.79;39.68;78085.28;5275492;28;20023;-68
2023/04/25 12:33:47;;;;;;;1.90;1.33;;;;;;;-145.79;39.50;78059.84;5285316;28;20099;-68
2023/04/25 12:36:19;;;;;;;3.97;1.13;;;;;;;-145.79;39.23;78032.28;5284153;28;20476;-69
2023/04/25 12:38:51;;;;;;;1.85;1.15;;;;;;;-145.79;39.58;78002.63;5284070;28;20028;-69
2023/04/25 12:41:22;;;;;;;4.05;1.33;;;;;;;-145.79;39.26;77975.06;5282507;28;20036;-68
2023/04/25 12:43:53;;;;;;;1.65;1.05;;;;;;;-145.79;38.13;77983.53;5283715;28;20029;-68
2023/04/25 12:46:25;;;;;;;3.97;1.40;;;;;;;-145.79;39.73;77945.38;5291762;28;20016;-68
2023/04/25 12:48:57;;;;;;;7.18;1.70;;;;;;;-145.79;40.38;77989.91;5287472;28;20075;-68
2023/04/25 12:51:28;;;;;;;2.92;1.20;;;;;;;-145.79;40.45;78038.66;5296734;28;20024;-68
2023/04/25 12:54:00;;;;;;;4.13;1.50;;;;;;;-145.79;41.42;78055.63;5288611;28;20028;-68
2023/04/25 12:56:31;;;;;;;4.53;1.42;;;;;;;-145.79;40.61;78061.97;5290521;28;20032;-67
2023/04/25 12:59:03;;;;;;;3.88;1.50;;;;;;;-145.79;40.52;78025.94;5272161;28;20024;-68
2023/04/25 13:01:34;;;;;;;2.85;1.35;;;;;;;-145.79;39.36;77994.13;5273412;28;20060;-68
2023/04/25 13:04:06;;;;;;;4.63;1.80;;;;;;;-145.79;41.43;77966.56;5274958;28;20028;-68
2023/04/25 13:06:37;;;;;;;5.10;3.53;;;;;;;-145.79;44.17;77989.91;5270338;28;20024;-68
2023/04/25 13:09:08;;;;;;;5.20;2.08;;;;;;;-145.79;44.45;78047.13;5283253;28;20086;-67
2023/04/25 13:11:43;;;;;;;9.15;3.97;;;;;;;-145.79;44.56;78061.97;5271717;28;20063;-68
2023/04/25 13:14:15;;;;;;;7.03;2.17;;;;;;;-145.79;45.75;78068.34;5263723;28;20116;-67
2023/04/25 13:16:47;;;;;;;4.70;2.30;;;;;;;-145.79;45.82;78025.94;5262708;28;20021;-68
2023/04/25 13:19:18;;;;;;;6.00;2.17;;;;;;;-145.79;43.49;77996.25;5279165;28;20116;-68
2023/04/25 13:21:49;;;;;;;3.53;1.60;;;;;;;-145.79;43.54;77960.22;5270420;28;20450;-68
2023/04/25 13:24:21;;;;;;;3.30;1.48;;;;;;;-145.79;42.23;77945.38;5283159;28;20032;-68
2023/04/25 13:26:52;;;;;;;3.60;1.48;;;;;;;-145.79;42.13;77951.72;5282990;28;20142;-69
2023/04/25 13:29:23;;;;;;;6.28;1.83;;;;;;;-145.79;42.59;77947.50;5283997;28;20082;-68
2023/04/25 13:31:54;;;;;;;4.93;1.73;;;;;;;-145.79;42.09;77958.09;5283485;28;20032;-68
2023/04/25 13:34:26;;;;;;;5.63;1.65;;;;;;;-145.79;41.98;77947.50;5283685;28;20013;-68
2023/04/25 13:36:57;;;;;;;4.10;1.60;;;;;;;-145.79;41.31;77964.47;5283551;28;20129;-68
2023/04/25 13:39:28;;;;;;;18.77;10.30;;;;;;;-145.79;41.44;78017.44;5283347;28;20365;-68
2023/04/25 13:42:00;;;;;;;15.40;8.40;;;;;;;-145.79;41.34;77987.78;5283816;28;20083;-69
2023/04/25 13:44:31;;;;;;;7.18;1.95;;;;;;;-145.79;41.17;77953.84;5283126;28;20040;-67
2023/04/25 13:47:03;;;;;;;4.70;1.50;;;;;;;-145.79;40.53;77928.41;5282503;28;20468;-67
2023/04/25 13:49:34;;;;;;;8.07;5.32;;;;;;;-145.79;40.41;77928.41;5283679;28;20071;-67
2023/04/25 13:52:06;;;;;;;5.93;1.77;;;;;;;-145.79;41.04;77915.69;5282598;28;20070;-69
2023/04/25 13:54:37;;;;;;;4.47;1.70;;;;;;;-145.79;40.70;77881.78;5283454;28;20047;-68
2023/04/25 13:57:10;;;;;;;4.47;2.00;;;;;;;-145.79;39.34;77871.19;5281799;28;20021;-67
2023/04/25 13:59:41;;;;;;;6.45;2.85;;;;;;;-145.79;39.81;77873.31;5271271;28;20055;-67
2023/04/25 14:02:13;;;;;;;5.88;2.00;;;;;;;-145.79;39.96;77858.47;5281484;28;20024;-67
2023/04/25 14:04:44;;;;;;;3.65;1.70;;;;;;;-145.79;40.75;77881.78;5282499;28;20055;-67
2023/04/25 14:07:19;;;;;;;6.70;3.28;;;;;;;-145.79;41.04;77913.56;5282419;28;20025;-67
2023/04/25 14:09:50;;;;;;;6.07;1.75;;;;;;;-145.79;41.08;77951.72;5281523;28;20067;-68
2023/04/25 14:12:21;;;;;;;5.55;1.70;;;;;;;-145.79;42.01;77992.00;5263861;28;20033;-68
2023/04/25 14:14:53;;;;;;;7.57;1.73;;;;;;;-145.79;42.69;77996.25;5260762;28;20027;-68
2023/04/25 14:17:24;;;;;;;5.18;1.70;;;;;;;-145.79;43.19;78015.34;5261992;28;20079;-68
2023/04/25 14:19:55;;;;;;;3.15;1.75;;;;;;;-145.79;43.55;77992.00;5261294;28;20469;-69
2023/04/25 14:22:27;;;;;;;6.30;2.60;;;;;;;-145.79;42.92;78000.50;5262317;28;20024;-69
2023/04/25 14:24:58;;;;;;;5.93;2.08;;;;;;;-145.79;42.30;78006.84;5264147;28;20049;-69
2023/04/25 14:27:29;;;;;;;5.30;1.92;;;;;;;-145.79;43.45;77998.38;5275008;28;20130;-68
2023/04/25 14:30:01;;;;;;;4.20;1.75;;;;;;;-145.79;42.43;78006.84;5282845;28;20024;-67
2023/04/25 14:32:32;;;;;;;7.82;2.22;;;;;;;-145.79;47.26;77979.28;5281517;28;20037;-69
2023/04/25 14:35:03;;;;;;;6.25;1.77;;;;;;;-145.79;42.67;77975.06;5281888;28;20051;-68
2023/04/25 14:37:35;;;;;;;28.65;22.52;;;;;;;-145.79;40.76;77975.06;5275151;28;20177;-68
2023/04/25 14:40:11;;;;;;;6.20;3.22;;;;;;;-145.79;40.44;77987.78;5271331;28;20425;-68
2023/04/25 14:42:46;;;;;;;7.72;2.75;;;;;;;-145.79;41.28;77943.25;5280564;28;20039;-68
2023/04/25 14:45:17;;;;;;;19.08;15.10;;;;;;;-145.79;37.11;77924.19;5282795;28;20039;-68
2023/04/25 14:47:49;;;;;;;3.35;1.88;;;;;;;-145.79;36.34;77932.66;5281932;28;20808;-68
2023/04/25 14:50:20;;;;;;;4.45;1.52;;;;;;;-145.79;37.51;77975.06;5283399;28;20418;-70
2023/04/25 14:52:53;;;;;;;3.88;1.60;;;;;;;-145.79;37.09;77983.53;5283089;28;20093;-68
2023/04/25 14:55:24;;;;;;;4.78;1.45;;;;;;;-145.79;37.42;77992.00;5271302;28;20025;-69
2023/04/25 14:57:56;;;;;;;3.63;1.60;;;;;;;-145.79;37.73;77968.69;5271322;28;20031;-69
2023/04/25 15:00:27;;;;;;;3.97;1.77;;;;;;;-145.79;37.77;77987.78;5277784;28;20024;-68
2023/04/25 15:02:59;;;;;;;6.03;3.25;;;;;;;-145.79;37.44;77985.66;5266932;28;20032;-68
2023/04/25 15:05:30;;;;;;;4.78;1.40;;;;;;;-145.79;38.60;78013.22;5263277;28;20036;-68
2023/04/25 15:08:02;;;;;;;4.90;1.70;;;;;;;-145.79;38.84;77987.78;5269213;28;20524;-69
2023/04/25 15:10:33;;;;;;;5.20;1.65;;;;;;;-145.79;38.93;77989.91;5264520;28;20116;-69
2023/04/25 15:13:05;;;;;;;7.63;2.13;;;;;;;-145.79;38.66;77979.28;5276049;28;20507;-69
2023/04/25 15:15:36;;;;;;;4.78;1.92;;;;;;;-145.79;39.38;77962.34;5280626;28;20025;-69
2023/04/25 15:18:07;;;;;;;5.28;1.60;;;;;;;-145.79;38.50;77962.34;5271414;28;20032;-69
2023/04/25 15:20:40;;;;;;;3.33;1.42;;;;;;;-145.79;37.83;77955.97;5276324;28;20033;-69
2023/04/25 15:23:11;;;;;;;2.72;1.60;;;;;;;-145.79;37.88;77943.25;5259366;28;20028;-69
2023/04/25 15:25:42;;;;;;;4.50;1.70;;;;;;;-145.79;37.98;77932.66;5272574;28;20163;-69
2023/04/25 15:28:15;;;;;;;5.78;2.47;;;;;;;-145.79;38.86;77996.25;5282331;28;20035;-69
2023/04/25 15:30:47;;;;;;;10.35;6.20;;;;;;;-145.79;39.60;77979.28;5282434;28;20059;-69
2023/04/25 15:33:18;;;;;;;5.22;2.20;;;;;;;-145.79;39.29;77983.53;5279795;28;20044;-69
2023/04/25 15:35:49;;;;;;;4.22;1.83;;;;;;;-145.79;40.56;78011.09;5281852;28;20029;-69
2023/04/25 15:38:21;;;;;;;4.53;1.70;;;;;;;-145.79;40.13;78042.91;5279739;28;20361;-69
2023/04/25 15:40:53;;;;;;;3.47;2.22;;;;;;;-145.79;40.58;78011.09;5273588;28;20031;-70
2023/04/25 15:43:24;;;;;;;4.63;1.40;;;;;;;-145.79;40.46;78017.44;5272969;28;20041;-70
2023/04/25 15:45:56;;;;;;;7.53;2.15;;;;;;;-145.79;40.47;78011.09;5270222;28;20104;-70
2023/04/25 15:48:27;;;;;;;4.82;3.72;;;;;;;-145.79;40.79;78017.44;5283519;28;20564;-69
2023/04/25 15:51:07;;;;;;;5.45;2.13;;;;;;;-145.79;41.81;77970.81;5277118;28;20028;-72
2023/04/25 15:53:38;;;;;;;5.32;2.28;;;;;;;-145.79;40.14;77970.81;5285598;28;20460;-72
2023/04/25 15:56:10;;;;;;;3.65;1.63;;;;;;;-145.79;39.42;77970.81;5274566;28;20037;-70
2023/04/25 15:58:42;;;;;;;4.70;2.70;;;;;;;-145.79;38.89;77983.53;5274677;28;20024;-70
2023/04/25 16:01:14;;;;;;;6.90;2.05;;;;;;;-145.79;39.59;78013.22;5284715;28;20040;-70
2023/04/25 16:03:45;;;;;;;6.05;2.15;;;;;;;-145.79;39.98;77996.25;5285668;28;20086;-70
2023/04/25 16:06:17;;;;;;;4.35;1.50;;;;;;;-145.79;40.05;78011.09;5279747;28;20107;-70
2023/04/25 16:08:48;;;;;;;3.45;1.50;;;;;;;-145.79;40.14;78008.97;5285377;28;20028;-70
2023/04/25 16:11:20;;;;;;;5.90;2.15;;;;;;;-145.79;39.00;78015.34;5285509;28;20100;-70
2023/04/25 16:13:51;;;;;;;5.25;2.10;;;;;;;-145.79;38.97;78017.44;5284443;28;20108;-70
2023/04/25 16:16:22;;;;;;;5.20;1.52;;;;;;;-145.79;39.38;78036.53;5285728;28;20028;-71
2023/04/25 16:18:54;;;;;;;3.97;1.58;;;;;;;-145.79;39.21;78036.53;5285396;28;20078;-70
2023/04/25 16:21:27;;;;;;;5.13;1.50;;;;;;;-145.79;39.23;78053.50;5278865;28;20048;-68
2023/04/25 16:23:58;;;;;;;4.22;1.63;;;;;;;-145.79;38.77;78055.63;5285081;28;20146;-69
2023/04/25 16:26:30;;;;;;;3.75;1.60;;;;;;;-145.79;38.63;78017.44;5276707;28;20112;-70
2023/04/25 16:29:04;;;;;;;8.05;1.95;;;;;;;-145.79;37.94;78017.44;5264478;28;20089;-70
2023/04/25 16:31:37;;;;;;;6.03;2.10;;;;;;;-145.79;38.32;77992.00;5280800;28;20063;-69
2023/04/25 16:34:08;;;;;;;2.88;1.63;;;;;;;-145.79;38.28;78013.22;5282865;28;20024;-69
2023/04/25 16:36:40;;;;;;;5.00;1.92;;;;;;;-145.79;38.86;78040.78;5271799;28;20025;-69
2023/04/25 16:39:11;;;;;;;5.45;2.72;;;;;;;-145.79;39.89;78066.22;5272346;28;20104;-69
2023/04/25 16:41:43;;;;;;;11.23;7.28;;;;;;;-145.79;40.66;78083.19;5283988;28;20119;-69
2023/04/25 16:44:14;;;;;;;5.18;2.10;;;;;;;-145.79;41.18;78110.72;5280880;28;20487;-68
2023/04/25 16:46:45;;;;;;;5.15;2.17;;;;;;;-145.79;41.37;78119.22;5275511;28;20103;-68
2023/04/25 16:49:17;;;;;;;4.07;1.90;;;;;;;-145.79;41.67;78121.34;5283833;28;20111;-69
2023/04/25 16:51:49;;;;;;;7.43;2.42;;;;;;;-145.79;41.78;78110.72;5284850;28;20024;-69
